sensor_id;sensor_type;location;lat;lon;timestamp;pressure;altitude;pressure_sealevel;temperature;humidity
706;BME280;21234;48.690;9.016;2023-03-18T00:00:39;95682.09;;;10.83;48.09
706;BME280;21234;48.690;9.016;2023-03-18T00:03:07;95666.06;;;10.82;48.37
706;BME280;21234;48.690;9.016;2023-03-18T00:05:34;95669.28;;;10.78;49.77
706;BME280;21234;48.690;9.016;2023-03-18T00:08:01;95669.00;;;10.75;49.84
706;BME280;21234;48.690;9.016;2023-03-18T00:10:29;95670.63;;;10.66;49.44
706;BME280;21234;48.690;9.016;2023-03-18T00:12:56;95669.78;;;10.60;50.70
706;BME280;21234;48.690;9.016;2023-03-18T00:15:24;95676.53;;;10.53;49.78
706;BME280;21234;48.690;9.016;2023-03-18T00:17:50;95676.75;;;10.46;51.27
706;BME280;21234;48.690;9.016;2023-03-18T00:20:19;95683.88;;;10.52;50.72
706;BME280;21234;48.690;9.016;2023-03-18T00:22:53;95679.50;;;10.51;49.60
706;BME280;21234;48.690;9.016;2023-03-18T00:25:22;95681.38;;;10.46;49.66
706;BME280;21234;48.690;9.016;2023-03-18T00:27:49;95682.22;;;10.51;48.73
706;BME280;21234;48.690;9.016;2023-03-18T00:30:15;95683.63;;;10.59;48.04
706;BME280;21234;48.690;9.016;2023-03-18T00:32:42;95691.56;;;10.70;47.46
706;BME280;21234;48.690;9.016;2023-03-18T00:35:10;95693.75;;;10.73;47.55
706;BME280;21234;48.690;9.016;2023-03-18T00:37:38;95700.00;;;10.74;47.56
706;BME280;21234;48.690;9.016;2023-03-18T00:40:09;95701.63;;;10.75;47.63
706;BME280;21234;48.690;9.016;2023-03-18T00:42:41;95707.34;;;10.73;48.29
706;BME280;21234;48.690;9.016;2023-03-18T00:45:13;95705.16;;;10.75;47.73
706;BME280;21234;48.690;9.016;2023-03-18T00:47:41;95706.81;;;10.71;48.35
706;BME280;21234;48.690;9.016;2023-03-18T00:50:10;95699.19;;;10.73;48.19
706;BME280;21234;48.690;9.016;2023-03-18T00:52:38;95716.03;;;10.70;48.18
706;BME280;21234;48.690;9.016;2023-03-18T00:55:06;95708.41;;;10.72;47.99
706;BME280;21234;48.690;9.016;2023-03-18T00:57:34;95702.97;;;10.67;48.45
706;BME280;21234;48.690;9.016;2023-03-18T01:00:01;95709.50;;;10.66;48.41
706;BME280;21234;48.690;9.016;2023-03-18T01:02:29;95720.91;;;10.63;48.38
706;BME280;21234;48.690;9.016;2023-03-18T01:04:55;95722.00;;;10.67;48.43
706;BME280;21234;48.690;9.016;2023-03-18T01:07:23;95718.19;;;10.63;47.99
706;BME280;21234;48.690;9.016;2023-03-18T01:09:52;95719.28;;;10.67;48.05
706;BME280;21234;48.690;9.016;2023-03-18T01:12:19;95718.75;;;10.70;47.50
706;BME280;21234;48.690;9.016;2023-03-18T01:14:47;95720.09;;;10.73;47.73
706;BME280;21234;48.690;9.016;2023-03-18T01:17:13;95718.50;;;10.77;47.36
706;BME280;21234;48.690;9.016;2023-03-18T01:19:40;95720.41;;;10.76;47.66
706;BME280;21234;48.690;9.016;2023-03-18T01:22:07;95711.94;;;10.73;47.96
706;BME280;21234;48.690;9.016;2023-03-18T01:24:34;95711.13;;;10.67;47.85
706;BME280;21234;48.690;9.016;2023-03-18T01:27:03;95712.50;;;10.70;47.66
706;BME280;21234;48.690;9.016;2023-03-18T01:29:30;95707.06;;;10.70;48.00
706;BME280;21234;48.690;9.016;2023-03-18T01:31:57;95709.78;;;10.70;47.47
706;BME280;21234;48.690;9.016;2023-03-18T01:34:24;95707.59;;;10.67;47.80
706;BME280;21234;48.690;9.016;2023-03-18T01:36:52;95702.97;;;10.67;47.98
706;BME280;21234;48.690;9.016;2023-03-18T01:39:20;95698.63;;;10.66;48.32
706;BME280;21234;48.690;9.016;2023-03-18T01:41:48;95710.31;;;10.67;48.08
706;BME280;21234;48.690;9.016;2023-03-18T01:44:19;95707.06;;;10.70;48.22
706;BME280;21234;48.690;9.016;2023-03-18T01:46:47;95701.06;;;10.68;47.89
706;BME280;21234;48.690;9.016;2023-03-18T01:49:16;95718.72;;;10.65;48.05
706;BME280;21234;48.690;9.016;2023-03-18T01:51:52;95705.41;;;10.64;48.00
706;BME280;21234;48.690;9.016;2023-03-18T01:54:21;95700.78;;;10.64;48.29
706;BME280;21234;48.690;9.016;2023-03-18T01:56:49;95700.75;;;10.59;48.45
706;BME280;21234;48.690;9.016;2023-03-18T01:59:19;95709.44;;;10.56;48.61
706;BME280;21234;48.690;9.016;2023-03-18T02:01:49;95707.25;;;10.53;48.45
706;BME280;21234;48.690;9.016;2023-03-18T02:04:18;95700.44;;;10.51;49.07
706;BME280;21234;48.690;9.016;2023-03-18T02:06:46;95699.31;;;10.47;49.23
706;BME280;21234;48.690;9.016;2023-03-18T02:09:13;95691.16;;;10.47;49.21
706;BME280;21234;48.690;9.016;2023-03-18T02:11:43;95693.59;;;10.43;48.95
706;BME280;21234;48.690;9.016;2023-03-18T02:14:13;95695.75;;;10.41;49.04
706;BME280;21234;48.690;9.016;2023-03-18T02:16:44;95697.94;;;10.44;49.04
706;BME280;21234;48.690;9.016;2023-03-18T02:19:27;95696.81;;;10.40;49.07
706;BME280;21234;48.690;9.016;2023-03-18T02:22:05;95698.19;;;10.37;49.15
706;BME280;21234;48.690;9.016;2023-03-18T02:24:41;95698.75;;;10.39;49.22
706;BME280;21234;48.690;9.016;2023-03-18T02:27:16;95707.94;;;10.33;49.35
706;BME280;21234;48.690;9.016;2023-03-18T02:29:44;95710.09;;;10.31;49.67
706;BME280;21234;48.690;9.016;2023-03-18T02:32:12;95712.25;;;10.29;49.70
706;BME280;21234;48.690;9.016;2023-03-18T02:34:41;95706.56;;;10.31;49.81
706;BME280;21234;48.690;9.016;2023-03-18T02:37:08;95709.56;;;10.29;50.05
706;BME280;21234;48.690;9.016;2023-03-18T02:39:35;95710.88;;;10.27;50.06
706;BME280;21234;48.690;9.016;2023-03-18T02:42:02;95708.13;;;10.22;49.96
706;BME280;21234;48.690;9.016;2023-03-18T02:44:31;95708.13;;;10.22;49.83
706;BME280;21234;48.690;9.016;2023-03-18T02:47:02;95698.28;;;10.16;50.19
706;BME280;21234;48.690;9.016;2023-03-18T02:49:30;95705.88;;;10.14;50.71
706;BME280;21234;48.690;9.016;2023-03-18T02:51:57;95697.41;;;10.10;50.58
706;BME280;21234;48.690;9.016;2023-03-18T02:54:26;95706.66;;;10.09;50.37
706;BME280;21234;48.690;9.016;2023-03-18T02:56:54;95705.31;;;10.11;50.88
706;BME280;21234;48.690;9.016;2023-03-18T02:59:21;95708.28;;;10.10;50.84
706;BME280;21234;48.690;9.016;2023-03-18T03:01:51;95703.41;;;10.07;51.13
706;BME280;21234;48.690;9.016;2023-03-18T03:04:20;95704.75;;;10.09;50.84
706;BME280;21234;48.690;9.016;2023-03-18T03:06:48;95701.78;;;10.11;50.81
706;BME280;21234;48.690;9.016;2023-03-18T03:09:15;95710.19;;;10.09;50.59
706;BME280;21234;48.690;9.016;2023-03-18T03:11:44;95714.78;;;10.09;50.34
706;BME280;21234;48.690;9.016;2023-03-18T03:14:12;95722.16;;;10.14;50.81
706;BME280;21234;48.690;9.016;2023-03-18T03:16:39;95717.25;;;10.10;50.79
706;BME280;21234;48.690;9.016;2023-03-18T03:19:07;95722.69;;;10.10;50.71
706;BME280;21234;48.690;9.016;2023-03-18T03:21:34;95723.75;;;10.04;50.60
706;BME280;21234;48.690;9.016;2023-03-18T03:24:01;95720.72;;;10.01;51.11
706;BME280;21234;48.690;9.016;2023-03-18T03:26:28;95725.03;;;9.97;50.96
706;BME280;21234;48.690;9.016;2023-03-18T03:28:56;95726.41;;;9.99;51.30
706;BME280;21234;48.690;9.016;2023-03-18T03:31:22;95723.13;;;9.97;50.77
706;BME280;21234;48.690;9.016;2023-03-18T03:33:49;95738.31;;;9.93;51.21
706;BME280;21234;48.690;9.016;2023-03-18T03:36:18;95736.38;;;9.89;51.42
706;BME280;21234;48.690;9.016;2023-03-18T03:38:45;95734.97;;;9.86;52.01
706;BME280;21234;48.690;9.016;2023-03-18T03:41:11;95733.28;;;9.80;51.84
706;BME280;21234;48.690;9.016;2023-03-18T03:43:40;95727.03;;;9.80;52.75
706;BME280;21234;48.690;9.016;2023-03-18T03:46:07;95740.31;;;9.76;52.13
706;BME280;21234;48.690;9.016;2023-03-18T03:48:34;95734.88;;;9.71;52.53
706;BME280;21234;48.690;9.016;2023-03-18T03:51:01;95733.75;;;9.67;52.16
706;BME280;21234;48.690;9.016;2023-03-18T03:53:31;95740.50;;;9.64;52.82
706;BME280;21234;48.690;9.016;2023-03-18T03:55:58;95735.63;;;9.66;53.20
706;BME280;21234;48.690;9.016;2023-03-18T03:58:24;95734.75;;;9.61;53.79
706;BME280;21234;48.690;9.016;2023-03-18T04:00:51;95732.59;;;9.63;52.74
706;BME280;21234;48.690;9.016;2023-03-18T04:03:18;95728.78;;;9.59;53.11
706;BME280;21234;48.690;9.016;2023-03-18T04:05:45;95732.00;;;9.56;53.12
706;BME280;21234;48.690;9.016;2023-03-18T04:08:11;95736.84;;;9.54;53.36
706;BME280;21234;48.690;9.016;2023-03-18T04:10:39;95732.00;;;9.56;53.39
706;BME280;21234;48.690;9.016;2023-03-18T04:13:07;95732.50;;;9.53;53.26
706;BME280;21234;48.690;9.016;2023-03-18T04:15:34;95736.50;;;9.45;53.18
706;BME280;21234;48.690;9.016;2023-03-18T04:18:01;95737.56;;;9.44;53.04
706;BME280;21234;48.690;9.016;2023-03-18T04:20:31;95737.03;;;9.42;53.60
706;BME280;21234;48.690;9.016;2023-03-18T04:22:59;95737.78;;;9.37;54.27
706;BME280;21234;48.690;9.016;2023-03-18T04:25:26;95734.47;;;9.30;54.28
706;BME280;21234;48.690;9.016;2023-03-18T04:27:55;95736.34;;;9.30;54.12
706;BME280;21234;48.690;9.016;2023-03-18T04:30:22;95739.88;;;9.30;54.88
706;BME280;21234;48.690;9.016;2023-03-18T04:32:51;95745.00;;;9.27;54.10
706;BME280;21234;48.690;9.016;2023-03-18T04:35:19;95747.31;;;9.18;55.45
706;BME280;21234;48.690;9.016;2023-03-18T04:37:47;95744.56;;;9.13;55.50
706;BME280;21234;48.690;9.016;2023-03-18T04:40:14;95746.09;;;9.04;56.33
706;BME280;21234;48.690;9.016;2023-03-18T04:42:41;95750.69;;;9.03;56.33
706;BME280;21234;48.690;9.016;2023-03-18T04:45:11;95755.06;;;9.04;55.78
706;BME280;21234;48.690;9.016;2023-03-18T04:47:38;95750.69;;;9.03;55.68
706;BME280;21234;48.690;9.016;2023-03-18T04:50:07;95753.34;;;8.98;55.41
706;BME280;21234;48.690;9.016;2023-03-18T04:52:36;95747.03;;;8.93;55.58
706;BME280;21234;48.690;9.016;2023-03-18T04:55:03;95738.34;;;8.91;55.84
706;BME280;21234;48.690;9.016;2023-03-18T04:57:30;95742.53;;;8.82;55.32
706;BME280;21234;48.690;9.016;2023-03-18T04:59:59;95745.81;;;8.84;55.28
706;BME280;21234;48.690;9.016;2023-03-18T05:02:29;95746.41;;;8.86;55.76
706;BME280;21234;48.690;9.016;2023-03-18T05:04:55;95743.19;;;8.89;56.13
706;BME280;21234;48.690;9.016;2023-03-18T05:07:22;95735.38;;;8.92;55.80
706;BME280;21234;48.690;9.016;2023-03-18T05:09:49;95749.19;;;8.91;55.51
706;BME280;21234;48.690;9.016;2023-03-18T05:12:15;95750.81;;;8.92;56.61
706;BME280;21234;48.690;9.016;2023-03-18T05:14:43;95752.97;;;8.90;56.90
706;BME280;21234;48.690;9.016;2023-03-18T05:17:11;95751.47;;;8.77;56.10
706;BME280;21234;48.690;9.016;2023-03-18T05:19:43;95753.53;;;8.70;55.59
706;BME280;21234;48.690;9.016;2023-03-18T05:22:11;95752.22;;;8.72;55.51
706;BME280;21234;48.690;9.016;2023-03-18T05:24:38;95755.09;;;8.66;55.40
706;BME280;21234;48.690;9.016;2023-03-18T05:27:06;95749.75;;;8.71;55.72
706;BME280;21234;48.690;9.016;2023-03-18T05:29:32;95756.97;;;8.65;55.75
706;BME280;21234;48.690;9.016;2023-03-18T05:31:59;95758.22;;;8.58;56.35
706;BME280;21234;48.690;9.016;2023-03-18T05:34:27;95753.13;;;8.61;56.97
706;BME280;21234;48.690;9.016;2023-03-18T05:36:55;95759.94;;;8.64;56.68
706;BME280;21234;48.690;9.016;2023-03-18T05:39:22;95762.09;;;8.62;57.03
706;BME280;21234;48.690;9.016;2023-03-18T05:41:48;95761.75;;;8.58;57.70
706;BME280;21234;48.690;9.016;2023-03-18T05:44:15;95766.03;;;8.54;57.45
706;BME280;21234;48.690;9.016;2023-03-18T05:46:42;95756.44;;;8.47;57.63
706;BME280;21234;48.690;9.016;2023-03-18T05:49:08;95761.03;;;8.46;58.65
706;BME280;21234;48.690;9.016;2023-03-18T05:51:35;95763.94;;;8.39;57.63
706;BME280;21234;48.690;9.016;2023-03-18T05:54:05;95760.53;;;8.49;58.36
706;BME280;21234;48.690;9.016;2023-03-18T05:56:31;95755.50;;;8.36;58.05
706;BME280;21234;48.690;9.016;2023-03-18T05:58:58;95762.06;;;8.40;57.99
706;BME280;21234;48.690;9.016;2023-03-18T06:01:25;95765.13;;;8.32;57.57
706;BME280;21234;48.690;9.016;2023-03-18T06:03:52;95761.41;;;8.33;59.65
706;BME280;21234;48.690;9.016;2023-03-18T06:06:19;95756.44;;;8.30;60.86
706;BME280;21234;48.690;9.016;2023-03-18T06:08:46;95761.03;;;8.29;60.01
706;BME280;21234;48.690;9.016;2023-03-18T06:11:14;95764.00;;;8.28;61.51
706;BME280;21234;48.690;9.016;2023-03-18T06:13:41;95764.50;;;8.25;61.73
706;BME280;21234;48.690;9.016;2023-03-18T06:16:08;95772.69;;;8.13;60.72
706;BME280;21234;48.690;9.016;2023-03-18T06:18:35;95772.16;;;8.11;61.14
706;BME280;21234;48.690;9.016;2023-03-18T06:21:02;95772.06;;;8.06;61.20
706;BME280;21234;48.690;9.016;2023-03-18T06:23:28;95777.63;;;8.16;61.15
706;BME280;21234;48.690;9.016;2023-03-18T06:25:56;95773.34;;;8.20;61.77
706;BME280;21234;48.690;9.016;2023-03-18T06:28:24;95774.81;;;8.28;62.21
706;BME280;21234;48.690;9.016;2023-03-18T06:30:54;95786.44;;;8.40;61.05
706;BME280;21234;48.690;9.016;2023-03-18T06:33:20;95781.13;;;8.67;60.83
706;BME280;21234;48.690;9.016;2023-03-18T06:35:47;95782.63;;;8.80;60.46
706;BME280;21234;48.690;9.016;2023-03-18T06:38:14;95784.66;;;8.89;58.69
706;BME280;21234;48.690;9.016;2023-03-18T06:40:41;95787.13;;;8.91;60.62
706;BME280;21234;48.690;9.016;2023-03-18T06:43:08;95780.69;;;8.97;59.00
706;BME280;21234;48.690;9.016;2023-03-18T06:45:38;95774.44;;;9.18;56.06
706;BME280;21234;48.690;9.016;2023-03-18T06:48:06;95777.63;;;9.59;54.55
706;BME280;21234;48.690;9.016;2023-03-18T06:50:33;95771.16;;;9.92;53.13
706;BME280;21234;48.690;9.016;2023-03-18T06:53:00;95773.97;;;10.34;52.93
706;BME280;21234;48.690;9.016;2023-03-18T06:55:27;95781.03;;;10.77;51.15
706;BME280;21234;48.690;9.016;2023-03-18T06:57:53;95772.09;;;11.49;50.22
706;BME280;21234;48.690;9.016;2023-03-18T07:00:21;95767.31;;;12.07;49.29
706;BME280;21234;48.690;9.016;2023-03-18T07:02:50;95771.44;;;13.45;46.19
706;BME280;21234;48.690;9.016;2023-03-18T07:05:17;95770.75;;;14.81;43.21
706;BME280;21234;48.690;9.016;2023-03-18T07:07:45;95772.38;;;15.77;41.46
706;BME280;21234;48.690;9.016;2023-03-18T07:10:18;95771.53;;;16.52;39.56
706;BME280;21234;48.690;9.016;2023-03-18T07:12:46;95772.50;;;16.42;39.21
706;BME280;21234;48.690;9.016;2023-03-18T07:15:13;95775.06;;;17.17;37.19
706;BME280;21234;48.690;9.016;2023-03-18T07:17:40;95772.41;;;17.39;35.48
706;BME280;21234;48.690;9.016;2023-03-18T07:20:10;95776.41;;;17.74;34.50
706;BME280;21234;48.690;9.016;2023-03-18T07:22:37;95784.00;;;18.27;33.21
706;BME280;21234;48.690;9.016;2023-03-18T07:25:04;95778.69;;;17.95;33.06
706;BME280;21234;48.690;9.016;2023-03-18T07:27:31;95787.13;;;17.98;33.25
706;BME280;21234;48.690;9.016;2023-03-18T07:29:59;95791.66;;;17.81;35.27
706;BME280;21234;48.690;9.016;2023-03-18T07:32:25;95791.53;;;17.17;34.33
706;BME280;21234;48.690;9.016;2023-03-18T07:34:54;95796.03;;;17.68;33.39
706;BME280;21234;48.690;9.016;2023-03-18T07:37:22;95784.41;;;18.57;32.17
706;BME280;21234;48.690;9.016;2023-03-18T07:39:49;95786.84;;;19.03;32.08
706;BME280;21234;48.690;9.016;2023-03-18T07:42:17;95794.09;;;18.32;32.74
706;BME280;21234;48.690;9.016;2023-03-18T07:44:44;95791.16;;;18.95;32.50
706;BME280;21234;48.690;9.016;2023-03-18T07:47:11;95793.94;;;19.26;31.30
706;BME280;21234;48.690;9.016;2023-03-18T07:49:38;95790.78;;;19.41;31.93
706;BME280;21234;48.690;9.016;2023-03-18T07:52:05;95791.03;;;20.36;30.17
706;BME280;21234;48.690;9.016;2023-03-18T07:54:34;95792.31;;;20.22;30.13
706;BME280;21234;48.690;9.016;2023-03-18T07:57:01;95787.31;;;20.58;30.37
706;BME280;21234;48.690;9.016;2023-03-18T07:59:28;95780.44;;;21.63;27.92
706;BME280;21234;48.690;9.016;2023-03-18T08:01:55;95795.81;;;21.34;27.93
706;BME280;21234;48.690;9.016;2023-03-18T08:04:21;95795.56;;;21.01;27.07
706;BME280;21234;48.690;9.016;2023-03-18T08:06:49;95789.22;;;21.01;27.19
706;BME280;21234;48.690;9.016;2023-03-18T08:09:16;95793.25;;;21.29;27.35
706;BME280;21234;48.690;9.016;2023-03-18T08:11:44;95791.88;;;20.71;27.74
706;BME280;21234;48.690;9.016;2023-03-18T08:14:11;95799.09;;;21.19;27.62
706;BME280;21234;48.690;9.016;2023-03-18T08:16:38;95801.44;;;22.23;26.56
706;BME280;21234;48.690;9.016;2023-03-18T08:19:05;95798.13;;;22.50;25.72
706;BME280;21234;48.690;9.016;2023-03-18T08:21:31;95803.06;;;21.56;25.83
706;BME280;21234;48.690;9.016;2023-03-18T08:23:58;95808.69;;;20.09;27.61
706;BME280;21234;48.690;9.016;2023-03-18T08:26:25;95803.56;;;20.42;27.58
706;BME280;21234;48.690;9.016;2023-03-18T08:28:54;95804.69;;;20.50;27.70
706;BME280;21234;48.690;9.016;2023-03-18T08:31:21;95804.91;;;19.88;28.34
706;BME280;21234;48.690;9.016;2023-03-18T08:33:47;95800.50;;;19.39;29.85
706;BME280;21234;48.690;9.016;2023-03-18T08:36:18;95797.56;;;19.04;29.17
706;BME280;21234;48.690;9.016;2023-03-18T08:38:45;95799.88;;;18.89;28.92
706;BME280;21234;48.690;9.016;2023-03-18T08:41:12;95803.03;;;18.01;29.57
706;BME280;21234;48.690;9.016;2023-03-18T08:43:38;95804.97;;;17.60;31.90
706;BME280;21234;48.690;9.016;2023-03-18T08:46:06;95800.16;;;16.45;31.85
706;BME280;21234;48.690;9.016;2023-03-18T08:48:33;95802.41;;;16.06;33.21
706;BME280;21234;48.690;9.016;2023-03-18T08:51:02;95793.34;;;17.08;32.88
706;BME280;21234;48.690;9.016;2023-03-18T08:53:29;95791.13;;;16.45;31.89
706;BME280;21234;48.690;9.016;2023-03-18T08:55:55;95791.97;;;16.92;31.15
706;BME280;21234;48.690;9.016;2023-03-18T08:58:22;95789.56;;;17.04;30.78
706;BME280;21234;48.690;9.016;2023-03-18T09:00:49;95789.44;;;16.82;31.25
706;BME280;21234;48.690;9.016;2023-03-18T09:03:18;95789.06;;;17.02;31.13
706;BME280;21234;48.690;9.016;2023-03-18T09:05:46;95791.81;;;17.02;31.59
706;BME280;21234;48.690;9.016;2023-03-18T09:08:13;95790.97;;;16.88;30.78
706;BME280;21234;48.690;9.016;2023-03-18T09:10:40;95783.94;;;16.63;31.59
706;BME280;21234;48.690;9.016;2023-03-18T09:13:07;95788.28;;;17.15;31.91
706;BME280;21234;48.690;9.016;2023-03-18T09:15:33;95788.59;;;17.41;32.25
706;BME280;21234;48.690;9.016;2023-03-18T09:18:00;95782.63;;;16.60;31.55
706;BME280;21234;48.690;9.016;2023-03-18T09:20:28;95789.22;;;16.78;32.44
706;BME280;21234;48.690;9.016;2023-03-18T09:22:57;95774.22;;;16.89;31.33
706;BME280;21234;48.690;9.016;2023-03-18T09:25:24;95772.72;;;17.10;31.54
706;BME280;21234;48.690;9.016;2023-03-18T09:27:51;95776.06;;;17.07;31.78
706;BME280;21234;48.690;9.016;2023-03-18T09:30:18;95775.91;;;16.53;32.15
706;BME280;21234;48.690;9.016;2023-03-18T09:32:45;95777.59;;;16.16;32.57
706;BME280;21234;48.690;9.016;2023-03-18T09:35:13;95769.47;;;16.25;33.12
706;BME280;21234;48.690;9.016;2023-03-18T09:37:42;95782.63;;;16.09;33.85
706;BME280;21234;48.690;9.016;2023-03-18T09:40:14;95783.25;;;16.38;32.97
706;BME280;21234;48.690;9.016;2023-03-18T09:42:50;95773.69;;;16.36;32.58
706;BME280;21234;48.690;9.016;2023-03-18T09:45:24;95781.28;;;16.06;32.51
706;BME280;21234;48.690;9.016;2023-03-18T09:48:13;95774.69;;;16.91;34.33
706;BME280;21234;48.690;9.016;2023-03-18T09:50:50;95769.38;;;17.41;33.06
706;BME280;21234;48.690;9.016;2023-03-18T09:53:23;95768.97;;;17.48;31.99
706;BME280;21234;48.690;9.016;2023-03-18T09:55:55;95768.25;;;17.15;30.79
706;BME280;21234;48.690;9.016;2023-03-18T09:58:26;95763.44;;;17.06;30.72
706;BME280;21234;48.690;9.016;2023-03-18T10:00:58;95766.28;;;17.01;31.51
706;BME280;21234;48.690;9.016;2023-03-18T10:03:31;95759.34;;;16.90;31.37
706;BME280;21234;48.690;9.016;2023-03-18T10:06:02;95765.38;;;17.06;32.06
706;BME280;21234;48.690;9.016;2023-03-18T10:08:41;95764.75;;;16.95;32.21
706;BME280;21234;48.690;9.016;2023-03-18T10:11:20;95759.66;;;16.89;32.23
706;BME280;21234;48.690;9.016;2023-03-18T10:13:56;95759.66;;;16.89;32.72
706;BME280;21234;48.690;9.016;2023-03-18T10:16:28;95766.38;;;16.83;32.10
706;BME280;21234;48.690;9.016;2023-03-18T10:18:57;95766.91;;;17.12;32.68
706;BME280;21234;48.690;9.016;2023-03-18T10:21:34;95767.69;;;16.99;33.17
706;BME280;21234;48.690;9.016;2023-03-18T10:24:18;95761.53;;;17.34;32.13
706;BME280;21234;48.690;9.016;2023-03-18T10:26:56;95756.81;;;17.62;32.09
706;BME280;21234;48.690;9.016;2023-03-18T10:29:34;95765.59;;;17.23;30.33
706;BME280;21234;48.690;9.016;2023-03-18T10:32:13;95771.59;;;17.25;31.45
706;BME280;21234;48.690;9.016;2023-03-18T10:34:54;95778.09;;;17.16;30.63
706;BME280;21234;48.690;9.016;2023-03-18T10:37:33;95778.19;;;17.24;30.10
706;BME280;21234;48.690;9.016;2023-03-18T10:40:11;95771.91;;;17.37;31.22
706;BME280;21234;48.690;9.016;2023-03-18T10:42:40;95771.19;;;17.45;30.47
706;BME280;21234;48.690;9.016;2023-03-18T10:45:15;95766.41;;;17.37;31.58
706;BME280;21234;48.690;9.016;2023-03-18T10:47:48;95763.47;;;17.34;32.05
706;BME280;21234;48.690;9.016;2023-03-18T10:50:21;95761.53;;;17.34;30.89
706;BME280;21234;48.690;9.016;2023-03-18T10:52:52;95753.28;;;17.34;32.69
706;BME280;21234;48.690;9.016;2023-03-18T10:55:25;95748.81;;;17.11;31.59
706;BME280;21234;48.690;9.016;2023-03-18T10:57:55;95752.97;;;17.22;32.27
706;BME280;21234;48.690;9.016;2023-03-18T11:00:27;95748.09;;;17.05;32.50
706;BME280;21234;48.690;9.016;2023-03-18T11:02:54;95750.94;;;17.00;32.36
706;BME280;21234;48.690;9.016;2023-03-18T11:05:24;95744.84;;;17.31;33.04
706;BME280;21234;48.690;9.016;2023-03-18T11:07:55;95747.59;;;17.44;33.11
706;BME280;21234;48.690;9.016;2023-03-18T11:10:25;95751.56;;;17.38;32.23
706;BME280;21234;48.690;9.016;2023-03-18T11:12:56;95748.19;;;17.14;32.50
706;BME280;21234;48.690;9.016;2023-03-18T11:15:24;95733.34;;;17.15;32.08
706;BME280;21234;48.690;9.016;2023-03-18T11:17:51;95734.56;;;17.23;33.10
706;BME280;21234;48.690;9.016;2023-03-18T11:20:31;95726.28;;;17.64;34.67
706;BME280;21234;48.690;9.016;2023-03-18T11:23:04;95729.16;;;17.45;30.41
706;BME280;21234;48.690;9.016;2023-03-18T11:25:38;95736.38;;;17.27;31.33
706;BME280;21234;48.690;9.016;2023-03-18T11:28:18;95724.19;;;17.33;31.55
706;BME280;21234;48.690;9.016;2023-03-18T11:30:50;95722.56;;;17.32;31.92
706;BME280;21234;48.690;9.016;2023-03-18T11:33:18;95725.69;;;17.26;32.35
706;BME280;21234;48.690;9.016;2023-03-18T11:35:50;95724.16;;;17.61;32.94
706;BME280;21234;48.690;9.016;2023-03-18T11:38:19;95726.69;;;17.57;32.12
706;BME280;21234;48.690;9.016;2023-03-18T11:40:47;95722.13;;;17.66;34.19
706;BME280;21234;48.690;9.016;2023-03-18T11:43:19;95716.50;;;17.58;32.42
706;BME280;21234;48.690;9.016;2023-03-18T11:45:49;95718.47;;;17.71;32.46
706;BME280;21234;48.690;9.016;2023-03-18T11:48:27;95713.25;;;17.56;32.53
706;BME280;21234;48.690;9.016;2023-03-18T11:51:13;95711.78;;;17.50;32.50
706;BME280;21234;48.690;9.016;2023-03-18T11:53:54;95716.84;;;17.70;33.01
706;BME280;21234;48.690;9.016;2023-03-18T11:56:29;95713.38;;;17.78;32.77
706;BME280;21234;48.690;9.016;2023-03-18T12:02:20;95707.47;;;18.07;32.90
706;BME280;21234;48.690;9.016;2023-03-18T12:05:02;95709.50;;;17.79;31.62
706;BME280;21234;48.690;9.016;2023-03-18T12:07:50;95702.59;;;17.68;32.05
706;BME280;21234;48.690;9.016;2023-03-18T12:10:24;95698.31;;;17.75;31.05
706;BME280;21234;48.690;9.016;2023-03-18T12:13:04;95686.13;;;17.90;31.00
706;BME280;21234;48.690;9.016;2023-03-18T12:15:43;95690.66;;;18.08;30.64
706;BME280;21234;48.690;9.016;2023-03-18T12:18:22;95683.16;;;18.00;29.96
706;BME280;21234;48.690;9.016;2023-03-18T12:20:53;95676.97;;;18.17;30.65
706;BME280;21234;48.690;9.016;2023-03-18T12:23:41;95678.56;;;17.96;30.57
706;BME280;21234;48.690;9.016;2023-03-18T12:26:17;95676.72;;;18.05;30.91
706;BME280;21234;48.690;9.016;2023-03-18T12:29:17;95680.53;;;18.40;29.54
706;BME280;21234;48.690;9.016;2023-03-18T12:32:01;95682.97;;;18.41;28.99
706;BME280;21234;48.690;9.016;2023-03-18T12:34:44;95671.34;;;18.53;28.44
706;BME280;21234;48.690;9.016;2023-03-18T12:37:25;95663.50;;;18.38;29.16
706;BME280;21234;48.690;9.016;2023-03-18T12:40:15;95671.31;;;18.67;29.38
706;BME280;21234;48.690;9.016;2023-03-18T12:42:53;95674.41;;;19.05;32.06
706;BME280;21234;48.690;9.016;2023-03-18T12:45:23;95662.19;;;19.37;28.86
706;BME280;21234;48.690;9.016;2023-03-18T12:47:56;95671.78;;;19.48;28.10
706;BME280;21234;48.690;9.016;2023-03-18T12:50:30;95664.75;;;19.16;27.11
706;BME280;21234;48.690;9.016;2023-03-18T12:53:01;95661.06;;;19.38;26.97
706;BME280;21234;48.690;9.016;2023-03-18T12:55:30;95657.38;;;19.60;27.24
706;BME280;21234;48.690;9.016;2023-03-18T12:58:01;95656.28;;;19.69;26.49
706;BME280;21234;48.690;9.016;2023-03-18T13:00:33;95663.41;;;19.88;25.83
706;BME280;21234;48.690;9.016;2023-03-18T13:03:04;95655.91;;;20.49;26.03
706;BME280;21234;48.690;9.016;2023-03-18T13:05:41;95664.38;;;21.07;24.72
706;BME280;21234;48.690;9.016;2023-03-18T13:08:43;95659.25;;;21.56;24.61
706;BME280;21234;48.690;9.016;2023-03-18T13:11:27;95650.91;;;21.86;24.74
706;BME280;21234;48.690;9.016;2023-03-18T13:14:00;95651.75;;;21.36;24.50
706;BME280;21234;48.690;9.016;2023-03-18T13:16:31;95646.28;;;22.19;22.80
706;BME280;21234;48.690;9.016;2023-03-18T13:19:00;95637.69;;;23.35;21.99
706;BME280;21234;48.690;9.016;2023-03-18T13:21:29;95644.34;;;23.10;21.55
706;BME280;21234;48.690;9.016;2023-03-18T13:24:11;95649.59;;;23.60;21.77
706;BME280;21234;48.690;9.016;2023-03-18T13:26:55;95652.22;;;24.61;21.69
706;BME280;21234;48.690;9.016;2023-03-18T13:29:33;95646.31;;;22.97;22.00
706;BME280;21234;48.690;9.016;2023-03-18T13:32:13;95644.00;;;21.12;23.15
706;BME280;21234;48.690;9.016;2023-03-18T13:35:14;95650.91;;;20.25;24.59
706;BME280;21234;48.690;9.016;2023-03-18T13:38:23;95644.13;;;20.13;25.33
706;BME280;21234;48.690;9.016;2023-03-18T13:41:10;95652.09;;;19.81;25.60
706;BME280;21234;48.690;9.016;2023-03-18T13:43:42;95649.91;;;19.52;25.29